createdAt,value
2017-01-15T00:00:43.684Z,1003.13
2017-01-15T00:01:54.020Z,1003.15
2017-01-15T00:03:04.375Z,1003.1
2017-01-15T00:04:15.105Z,1003.13
2017-01-15T00:05:25.831Z,1003.17
2017-01-15T00:06:36.167Z,1003.17
2017-01-15T00:07:46.110Z,1003.12
2017-01-15T00:08:56.436Z,1003.14
2017-01-15T00:10:06.772Z,1003.12
2017-01-15T00:11:17.496Z,1003.13
2017-01-15T00:12:27.816Z,1003.15
2017-01-15T00:13:38.551Z,1003.18
2017-01-15T00:14:49.265Z,1003.14
2017-01-15T00:15:59.591Z,1003.14
2017-01-15T00:17:09.917Z,1003.16
2017-01-15T00:18:20.245Z,1003.16
2017-01-15T00:19:30.573Z,1003.19
2017-01-15T00:20:41.297Z,1003.19
2017-01-15T00:21:52.020Z,1003.17
2017-01-15T00:23:01.979Z,1003.23
2017-01-15T00:24:12.713Z,1003.2
2017-01-15T00:25:23.037Z,1003.22
2017-01-15T00:26:33.754Z,1003.21
2017-01-15T00:27:44.087Z,1003.2
2017-01-15T00:28:54.407Z,1003.22
2017-01-15T00:30:04.735Z,1003.22
2017-01-15T00:31:15.057Z,1003.25
2017-01-15T00:32:24.980Z,1003.23
2017-01-15T00:33:35.297Z,1003.22
2017-01-15T00:34:45.639Z,1003.2
2017-01-15T00:35:55.962Z,1003.23
2017-01-15T00:37:06.283Z,1003.26
2017-01-15T00:38:16.205Z,1003.26
2017-01-15T00:39:26.916Z,1003.3
2017-01-15T00:40:37.633Z,1003.29
2017-01-15T00:41:48.355Z,1003.33
2017-01-15T00:42:58.669Z,1003.26
2017-01-15T00:44:08.989Z,1003.28
2017-01-15T00:45:19.720Z,1003.27
2017-01-15T00:46:29.648Z,1003.31
2017-01-15T00:47:39.183Z,1003.29
2017-01-15T00:48:49.906Z,1003.32
2017-01-15T00:50:00.219Z,1003.3
2017-01-15T00:51:10.540Z,1003.31
2017-01-15T00:52:20.876Z,1003.31
2017-01-15T00:53:31.596Z,1003.37
2017-01-15T00:54:42.319Z,1003.4
2017-01-15T00:55:53.028Z,1003.37
2017-01-15T00:57:03.358Z,1003.39
2017-01-15T00:58:13.677Z,1003.4
2017-01-15T00:59:24.020Z,1003.43
2017-01-15T01:00:34.753Z,1003.39
2017-01-15T01:01:45.071Z,1003.4
2017-01-15T01:02:55.792Z,1003.38
2017-01-15T01:04:05.718Z,1003.42
2017-01-15T01:05:16.449Z,1003.44
2017-01-15T01:06:27.171Z,1003.41
2017-01-15T01:07:37.514Z,1003.46
2017-01-15T01:08:48.237Z,1003.47
2017-01-15T01:09:58.974Z,1003.46
2017-01-15T01:11:09.310Z,1003.51
2017-01-15T01:12:20.045Z,1003.52
2017-01-15T01:13:30.359Z,1003.47
2017-01-15T01:14:41.087Z,1003.47
2017-01-15T01:15:51.411Z,1003.49
2017-01-15T01:17:02.122Z,1003.56
2017-01-15T01:18:12.823Z,1003.52
2017-01-15T01:19:23.552Z,1003.51
2017-01-15T01:20:34.272Z,1003.49
2017-01-15T01:21:44.991Z,1003.56
2017-01-15T01:22:55.728Z,1003.5
2017-01-15T01:24:06.050Z,1003.51
2017-01-15T01:25:16.778Z,1003.5
2017-01-15T01:26:27.501Z,1003.56
2017-01-15T01:27:38.220Z,1003.58
2017-01-15T01:28:48.538Z,1003.61
2017-01-15T01:29:59.242Z,1003.55
2017-01-15T01:31:09.959Z,1003.56
2017-01-15T01:32:19.891Z,1003.58
2017-01-15T01:33:30.592Z,1003.59
2017-01-15T01:34:40.525Z,1003.62
2017-01-15T01:35:50.887Z,1003.63
2017-01-15T01:37:00.819Z,1003.67
2017-01-15T01:38:11.136Z,1003.68
2017-01-15T01:39:21.861Z,1003.68
2017-01-15T01:40:32.186Z,1003.69
2017-01-15T01:41:42.509Z,1003.66
2017-01-15T01:42:52.439Z,1003.71
2017-01-15T01:44:03.163Z,1003.76
2017-01-15T01:45:13.082Z,1003.73
2017-01-15T01:46:23.802Z,1003.73
2017-01-15T01:47:34.528Z,1003.73
2017-01-15T01:48:44.836Z,1003.73
2017-01-15T01:49:55.150Z,1003.75
2017-01-15T01:51:05.865Z,1003.76
2017-01-15T01:52:16.187Z,1003.78
2017-01-15T01:53:25.731Z,1003.72
2017-01-15T01:54:36.076Z,1003.78
2017-01-15T01:55:46.397Z,1003.74
2017-01-15T01:56:57.121Z,1003.77
2017-01-15T01:58:07.446Z,1003.73
2017-01-15T01:59:17.770Z,1003.76
2017-01-15T02:00:28.088Z,1003.79
2017-01-15T02:01:38.020Z,1003.77
2017-01-15T02:02:48.751Z,1003.8
2017-01-15T02:03:58.674Z,1003.82
2017-01-15T02:05:08.993Z,1003.85
2017-01-15T02:06:19.733Z,1003.83
2017-01-15T02:07:30.046Z,1003.77
2017-01-15T02:08:40.761Z,1003.81
2017-01-15T02:09:51.086Z,1003.79
2017-01-15T02:11:01.019Z,1003.85
2017-01-15T02:12:11.333Z,1003.86
2017-01-15T02:13:21.253Z,1003.9
2017-01-15T02:14:31.970Z,1003.91
2017-01-15T02:15:42.269Z,1003.91
2017-01-15T02:16:51.804Z,1003.94
2017-01-15T02:18:01.728Z,1003.93
2017-01-15T02:19:12.062Z,1003.94
2017-01-15T02:20:22.774Z,1003.89
2017-01-15T02:21:33.103Z,1003.94
2017-01-15T02:22:43.824Z,1003.95
2017-01-15T02:23:53.392Z,1003.93
2017-01-15T02:25:03.320Z,1003.95
2017-01-15T02:26:14.023Z,1004
2017-01-15T02:27:24.752Z,1003.98
2017-01-15T02:28:35.069Z,1004.03
2017-01-15T02:29:45.383Z,1004.06
2017-01-15T02:30:55.741Z,1004.02
2017-01-15T02:32:06.449Z,1003.99
2017-01-15T02:33:17.169Z,1004.05
2017-01-15T02:34:27.896Z,1004.03
2017-01-15T02:35:38.609Z,1003.99
2017-01-15T02:36:48.923Z,1004.02
2017-01-15T02:37:59.646Z,1004.01
2017-01-15T02:39:09.592Z,1004.01
2017-01-15T02:40:20.306Z,1003.96
2017-01-15T02:41:29.835Z,1004.03
2017-01-15T02:42:40.158Z,1004.05
2017-01-15T02:43:50.489Z,1003.99
2017-01-15T02:45:00.834Z,1004.01
2017-01-15T02:46:11.141Z,1004.05
2017-01-15T02:47:21.465Z,1003.97
2017-01-15T02:48:32.182Z,1004
2017-01-15T02:49:42.712Z,1003.96
2017-01-15T02:50:53.443Z,1004.04
2017-01-15T02:52:03.363Z,1004.01
2017-01-15T02:53:13.301Z,1004.01
2017-01-15T02:54:24.018Z,1003.95
2017-01-15T02:55:34.339Z,1004.03
2017-01-15T02:56:45.062Z,1004
2017-01-15T02:57:55.775Z,1004
2017-01-15T02:59:06.502Z,1004
2017-01-15T03:00:16.432Z,1004.03
2017-01-15T03:01:26.000Z,1004.01
2017-01-15T03:02:36.305Z,1004.01
2017-01-15T03:03:47.034Z,1004.01
2017-01-15T03:04:57.350Z,1003.94
2017-01-15T03:06:07.665Z,1003.97
2017-01-15T03:07:18.001Z,1004.06
2017-01-15T03:08:28.327Z,1003.98
2017-01-15T03:09:39.041Z,1004.03
2017-01-15T03:10:49.351Z,1003.93
2017-01-15T03:11:59.681Z,1003.98
2017-01-15T03:13:10.010Z,1003.96
2017-01-15T03:14:20.757Z,1004.01
2017-01-15T03:15:30.286Z,1004.02
2017-01-15T03:16:40.219Z,1004.04
2017-01-15T03:17:50.929Z,1004.03
2017-01-15T03:19:01.653Z,1004.01
2017-01-15T03:20:11.214Z,1004.1
2017-01-15T03:21:21.912Z,1004.08
2017-01-15T03:22:32.235Z,1004.09
2017-01-15T03:23:42.565Z,1004.08
2017-01-15T03:24:52.487Z,1004.11
2017-01-15T03:26:02.805Z,1004.1
2017-01-15T03:27:13.521Z,1004.12
2017-01-15T03:28:23.871Z,1004.12
2017-01-15T03:29:34.193Z,1004.17
2017-01-15T03:30:44.901Z,1004.2
2017-01-15T03:31:55.231Z,1004.18
2017-01-15T03:33:05.957Z,1004.13
2017-01-15T03:34:15.878Z,1004.15
2017-01-15T03:35:26.191Z,1004.17
2017-01-15T03:36:36.508Z,1004.13
2017-01-15T03:37:47.225Z,1004.14
2017-01-15T03:38:57.548Z,1004.14
2017-01-15T03:40:08.265Z,1004.17
2017-01-15T03:41:18.191Z,1004.22
2017-01-15T03:42:28.527Z,1004.19
2017-01-15T03:43:39.247Z,1004.21
2017-01-15T03:44:49.605Z,1004.18
2017-01-15T03:45:59.919Z,1004.19
2017-01-15T03:47:09.839Z,1004.23
2017-01-15T03:48:20.564Z,1004.2
2017-01-15T03:49:31.276Z,1004.21
2017-01-15T03:50:41.989Z,1004.17
2017-01-15T03:51:52.702Z,1004.3
2017-01-15T03:53:03.023Z,1004.24
2017-01-15T03:54:13.730Z,1004.24
2017-01-15T03:55:24.044Z,1004.22
2017-01-15T03:56:34.380Z,1004.24
2017-01-15T03:57:43.912Z,1004.29
2017-01-15T03:58:54.217Z,1004.22
2017-01-15T04:00:04.143Z,1004.26
2017-01-15T04:01:14.866Z,1004.26
2017-01-15T04:02:25.573Z,1004.33
2017-01-15T04:03:35.093Z,1004.3
2017-01-15T04:04:45.404Z,1004.28
2017-01-15T04:05:55.730Z,1004.31
2017-01-15T04:07:06.044Z,1004.29
2017-01-15T04:08:15.573Z,1004.29
2017-01-15T04:09:25.099Z,1004.3
2017-01-15T04:10:35.828Z,1004.33
2017-01-15T04:11:46.152Z,1004.32
2017-01-15T04:12:56.866Z,1004.35
2017-01-15T04:14:07.192Z,1004.29
2017-01-15T04:15:17.928Z,1004.32
2017-01-15T04:16:28.642Z,1004.3
2017-01-15T04:17:38.972Z,1004.3
2017-01-15T04:18:49.280Z,1004.33
2017-01-15T04:19:59.213Z,1004.33
2017-01-15T04:21:09.928Z,1004.32
2017-01-15T04:22:20.632Z,1004.38
2017-01-15T04:23:30.949Z,1004.34
2017-01-15T04:24:41.263Z,1004.37
2017-01-15T04:25:51.185Z,1004.35
2017-01-15T04:27:01.499Z,1004.36
2017-01-15T04:28:11.823Z,1004.37
2017-01-15T04:29:22.142Z,1004.37
2017-01-15T04:30:32.856Z,1004.38
2017-01-15T04:31:42.773Z,1004.44
2017-01-15T04:32:52.690Z,1004.42
2017-01-15T04:34:02.616Z,1004.44
2017-01-15T04:35:12.933Z,1004.47
2017-01-15T04:36:23.675Z,1004.51
2017-01-15T04:37:33.986Z,1004.49
2017-01-15T04:38:44.316Z,1004.47
2017-01-15T04:39:55.044Z,1004.53
2017-01-15T04:41:05.355Z,1004.5
2017-01-15T04:42:15.665Z,1004.49
2017-01-15T04:43:25.989Z,1004.56
2017-01-15T04:44:36.693Z,1004.51
2017-01-15T04:45:47.416Z,1004.55
2017-01-15T04:46:58.143Z,1004.53
2017-01-15T04:48:08.469Z,1004.55
2017-01-15T04:49:18.645Z,1004.57
2017-01-15T04:50:27.374Z,1004.58
2017-01-15T04:51:37.297Z,1004.58
2017-01-15T04:52:47.614Z,1004.66
2017-01-15T04:53:58.323Z,1004.6
2017-01-15T04:55:08.647Z,1004.64
2017-01-15T04:56:18.964Z,1004.65
2017-01-15T04:57:29.278Z,1004.63
2017-01-15T04:58:38.817Z,1004.64
2017-01-15T04:59:49.124Z,1004.65
2017-01-15T05:00:59.864Z,1004.67
2017-01-15T05:02:09.383Z,1004.66
2017-01-15T05:03:19.702Z,1004.63
2017-01-15T05:04:30.429Z,1004.63
2017-01-15T05:05:40.743Z,1004.65
2017-01-15T05:06:51.460Z,1004.67
2017-01-15T05:08:01.781Z,1004.66
2017-01-15T05:09:12.107Z,1004.68
2017-01-15T05:10:22.026Z,1004.72
2017-01-15T05:11:32.752Z,1004.74
2017-01-15T05:12:43.095Z,1004.7
2017-01-15T05:13:53.805Z,1004.73
2017-01-15T05:15:04.132Z,1004.71
2017-01-15T05:16:14.446Z,1004.75
2017-01-15T05:17:25.181Z,1004.74
2017-01-15T05:18:35.145Z,1004.72
2017-01-15T05:19:45.858Z,1004.78
2017-01-15T05:20:56.564Z,1004.74
2017-01-15T05:22:06.486Z,1004.81
2017-01-15T05:23:17.206Z,1004.78
2017-01-15T05:24:27.923Z,1004.73
2017-01-15T05:25:38.633Z,1004.75
2017-01-15T05:26:49.357Z,1004.77
2017-01-15T05:27:59.273Z,1004.76
2017-01-15T05:29:09.606Z,1004.84
2017-01-15T05:30:19.916Z,1004.77
2017-01-15T05:31:30.236Z,1004.83
2017-01-15T05:32:40.553Z,1004.85
2017-01-15T05:33:51.267Z,1004.85
2017-01-15T05:35:01.584Z,1004.83
2017-01-15T05:36:11.911Z,1004.79
2017-01-15T05:37:22.617Z,1004.87
2017-01-15T05:38:32.533Z,1004.86
2017-01-15T05:39:42.847Z,1004.93
2017-01-15T05:40:53.172Z,1004.89
2017-01-15T05:42:03.490Z,1004.97
2017-01-15T05:43:13.812Z,1005
2017-01-15T05:44:23.736Z,1005.02
2017-01-15T05:45:34.075Z,1004.98
2017-01-15T05:46:44.389Z,1005.02
2017-01-15T05:47:54.306Z,1004.99
2017-01-15T05:49:04.623Z,1005.09
2017-01-15T05:50:15.336Z,1005.06
2017-01-15T05:51:25.656Z,1005.09
2017-01-15T05:52:36.373Z,1005.12
2017-01-15T05:53:47.083Z,1005.09
2017-01-15T05:54:57.399Z,1005.1
2017-01-15T05:56:08.107Z,1005.11
2017-01-15T05:57:18.437Z,1005.16
2017-01-15T05:58:29.150Z,1005.12
2017-01-15T05:59:39.463Z,1005.14
2017-01-15T06:00:49.780Z,1005.14
2017-01-15T06:01:59.697Z,1005.11
2017-01-15T06:03:10.021Z,1005.13
2017-01-15T06:04:19.937Z,1005.16
2017-01-15T06:05:30.244Z,1005.16
2017-01-15T06:06:40.974Z,1005.19
2017-01-15T06:07:51.294Z,1005.2
2017-01-15T06:09:01.220Z,1005.21
2017-01-15T06:10:11.140Z,1005.25
2017-01-15T06:11:21.849Z,1005.3
2017-01-15T06:12:32.170Z,1005.26
2017-01-15T06:13:42.884Z,1005.33
2017-01-15T06:14:53.591Z,1005.37
2017-01-15T06:16:03.920Z,1005.39
2017-01-15T06:17:14.238Z,1005.38
2017-01-15T06:18:24.154Z,1005.39
2017-01-15T06:19:34.483Z,1005.36
2017-01-15T06:20:45.227Z,1005.38
2017-01-15T06:21:55.162Z,1005.38
2017-01-15T06:23:05.488Z,1005.42
2017-01-15T06:24:15.805Z,1005.44
2017-01-15T06:25:26.523Z,1005.51
2017-01-15T06:26:37.226Z,1005.45
2017-01-15T06:27:47.950Z,1005.5
2017-01-15T06:28:57.478Z,1005.49
2017-01-15T06:30:08.183Z,1005.5
2017-01-15T06:31:18.905Z,1005.53
2017-01-15T06:32:28.832Z,1005.52
2017-01-15T06:33:39.572Z,1005.53
2017-01-15T06:34:49.915Z,1005.6
2017-01-15T06:36:00.631Z,1005.62
2017-01-15T06:37:10.951Z,1005.66
2017-01-15T06:38:21.265Z,1005.66
2017-01-15T06:39:31.188Z,1005.67
2017-01-15T06:40:41.120Z,1005.65
2017-01-15T06:41:51.829Z,1005.74
2017-01-15T06:43:02.545Z,1005.7
2017-01-15T06:44:13.262Z,1005.72
2017-01-15T06:45:23.580Z,1005.74
2017-01-15T06:46:34.305Z,1005.77
2017-01-15T06:47:44.634Z,1005.78
2017-01-15T06:48:54.945Z,1005.8
2017-01-15T06:50:05.271Z,1005.83
2017-01-15T06:51:15.598Z,1005.85
2017-01-15T06:52:25.950Z,1005.86
2017-01-15T06:53:35.876Z,1005.9
2017-01-15T06:54:46.628Z,1005.92
2017-01-15T06:55:56.945Z,1005.94
2017-01-15T06:57:07.659Z,1005.9
2017-01-15T06:58:17.590Z,1005.94
2017-01-15T06:59:27.124Z,1005.95
2017-01-15T07:00:36.656Z,1005.99
2017-01-15T07:01:46.993Z,1006.03
2017-01-15T07:02:57.342Z,1006.01
2017-01-15T07:04:07.281Z,1006.03
2017-01-15T07:05:16.798Z,1006.02
2017-01-15T07:06:27.518Z,1006.1
2017-01-15T07:07:38.231Z,1006.1
2017-01-15T07:08:47.790Z,1006.11
2017-01-15T07:09:58.536Z,1006.13
2017-01-15T07:11:08.478Z,1006.16
2017-01-15T07:12:18.401Z,1006.17
2017-01-15T07:13:28.721Z,1006.19
2017-01-15T07:14:39.035Z,1006.19
2017-01-15T07:15:48.594Z,1006.18
2017-01-15T07:16:58.552Z,1006.18
2017-01-15T07:18:08.085Z,1006.21
2017-01-15T07:19:18.795Z,1006.22
2017-01-15T07:20:29.525Z,1006.2
2017-01-15T07:21:39.844Z,1006.21
2017-01-15T07:22:50.161Z,1006.33
2017-01-15T07:23:59.695Z,1006.34
2017-01-15T07:25:10.034Z,1006.3
2017-01-15T07:26:19.960Z,1006.34
2017-01-15T07:27:30.678Z,1006.33
2017-01-15T07:28:41.020Z,1006.39
2017-01-15T07:29:51.748Z,1006.38
2017-01-15T07:31:02.466Z,1006.39
2017-01-15T07:32:13.179Z,1006.37
2017-01-15T07:33:23.886Z,1006.4
2017-01-15T07:34:33.810Z,1006.44
2017-01-15T07:35:43.749Z,1006.44
2017-01-15T07:36:54.059Z,1006.46
2017-01-15T07:38:04.773Z,1006.46
2017-01-15T07:39:15.106Z,1006.5
2017-01-15T07:40:25.426Z,1006.51
2017-01-15T07:41:35.359Z,1006.53
2017-01-15T07:42:45.294Z,1006.55
2017-01-15T07:43:55.609Z,1006.56
2017-01-15T07:45:05.944Z,1006.56
2017-01-15T07:46:15.470Z,1006.58
2017-01-15T07:47:25.800Z,1006.6
2017-01-15T07:48:36.521Z,1006.57
2017-01-15T07:49:46.063Z,1006.62
2017-01-15T07:50:55.992Z,1006.61
2017-01-15T07:52:05.521Z,1006.64
2017-01-15T07:53:15.451Z,1006.65
2017-01-15T07:54:25.383Z,1006.72
2017-01-15T07:55:35.707Z,1006.75
2017-01-15T07:56:46.427Z,1006.73
2017-01-15T07:57:57.149Z,1006.73
2017-01-15T07:59:07.083Z,1006.8
2017-01-15T08:00:17.809Z,1006.8
2017-01-15T08:01:28.537Z,1006.8
2017-01-15T08:02:39.274Z,1006.83
2017-01-15T08:03:49.594Z,1006.81
2017-01-15T08:04:59.930Z,1006.87
2017-01-15T08:06:10.256Z,1006.92
2017-01-15T08:07:20.989Z,1006.85
2017-01-15T08:08:30.916Z,1006.98
2017-01-15T08:09:41.623Z,1006.97
2017-01-15T08:10:52.346Z,1007
2017-01-15T08:12:01.876Z,1007.01
2017-01-15T08:13:12.201Z,1007.04
2017-01-15T08:14:22.922Z,1007.04
2017-01-15T08:15:33.258Z,1007.03
2017-01-15T08:16:43.197Z,1007.04
2017-01-15T08:17:53.520Z,1007.04
2017-01-15T08:19:04.256Z,1007.08
2017-01-15T08:20:13.786Z,1007.14
2017-01-15T08:21:24.125Z,1007.1
2017-01-15T08:22:34.452Z,1007.16
2017-01-15T08:23:45.180Z,1007.16
2017-01-15T08:24:55.902Z,1007.17
2017-01-15T08:26:06.619Z,1007.21
2017-01-15T08:27:16.939Z,1007.19
2017-01-15T08:28:27.256Z,1007.21
2017-01-15T08:29:38.009Z,1007.28
2017-01-15T08:30:47.944Z,1007.26
2017-01-15T08:31:58.264Z,1007.28
2017-01-15T08:33:08.120Z,1007.29
2017-01-15T08:34:18.433Z,1007.3
2017-01-15T08:35:29.156Z,1007.32
2017-01-15T08:36:39.482Z,1007.31
2017-01-15T08:37:49.011Z,1007.36
2017-01-15T08:38:59.742Z,1007.29
2017-01-15T08:40:10.075Z,1007.34
2017-01-15T08:41:20.408Z,1007.35
2017-01-15T08:42:31.150Z,1007.33
2017-01-15T08:43:41.477Z,1007.35
2017-01-15T08:44:51.400Z,1007.35
2017-01-15T08:46:02.120Z,1007.38
2017-01-15T08:47:12.452Z,1007.4
2017-01-15T08:48:22.392Z,1007.42
2017-01-15T08:49:33.105Z,1007.46
2017-01-15T08:50:43.844Z,1007.46
2017-01-15T08:51:54.573Z,1007.44
2017-01-15T08:53:04.507Z,1007.41
2017-01-15T08:54:14.836Z,1007.4
2017-01-15T08:55:24.766Z,1007.5
2017-01-15T08:56:35.111Z,1007.46
2017-01-15T08:57:45.845Z,1007.5
2017-01-15T08:58:55.790Z,1007.54
2017-01-15T09:00:06.138Z,1007.54
2017-01-15T09:01:16.651Z,1007.54
2017-01-15T09:02:27.002Z,1007.52
2017-01-15T09:03:37.383Z,1007.48
2017-01-15T09:04:48.118Z,1007.55
2017-01-15T09:05:58.056Z,1007.53
2017-01-15T09:07:08.798Z,1007.58
2017-01-15T09:08:19.514Z,1007.52
2017-01-15T09:09:29.850Z,1007.58
2017-01-15T09:10:40.776Z,1007.61
2017-01-15T09:11:51.114Z,1007.55
2017-01-15T09:13:01.842Z,1007.58
2017-01-15T09:14:12.167Z,1007.58
2017-01-15T09:15:22.504Z,1007.62
2017-01-15T09:16:32.843Z,1007.63
2017-01-15T09:17:43.599Z,1007.65
2017-01-15T09:18:53.538Z,1007.64
2017-01-15T09:20:03.860Z,1007.67
2017-01-15T09:21:14.185Z,1007.66
2017-01-15T09:22:24.555Z,1007.69
2017-01-15T09:23:34.492Z,1007.68
2017-01-15T09:24:45.213Z,1007.69
2017-01-15T09:25:55.144Z,1007.67
2017-01-15T09:27:05.471Z,1007.65
2017-01-15T09:28:16.199Z,1007.72
2017-01-15T09:29:26.139Z,1007.72
2017-01-15T09:30:36.855Z,1007.72
2017-01-15T09:31:47.576Z,1007.72
2017-01-15T09:32:57.894Z,1007.73
2017-01-15T09:34:08.617Z,1007.74
2017-01-15T09:35:18.949Z,1007.74
2017-01-15T09:36:29.672Z,1007.73
2017-01-15T09:37:39.205Z,1007.77
2017-01-15T09:38:49.924Z,1007.76
2017-01-15T09:40:00.248Z,1007.79
2017-01-15T09:41:10.199Z,1007.81
2017-01-15T09:42:20.560Z,1007.79
2017-01-15T09:43:30.499Z,1007.74
2017-01-15T09:44:40.815Z,1007.75
2017-01-15T09:45:51.138Z,1007.76
2017-01-15T09:47:01.490Z,1007.76
2017-01-15T09:48:11.819Z,1007.74
2017-01-15T09:49:22.805Z,1007.79
2017-01-15T09:50:33.130Z,1007.77
2017-01-15T09:51:43.474Z,1007.77
2017-01-15T09:52:53.802Z,1007.79
2017-01-15T09:54:04.527Z,1007.81
2017-01-15T09:55:15.249Z,1007.8
2017-01-15T09:56:25.189Z,1007.85
2017-01-15T09:57:35.527Z,1007.83
2017-01-15T09:58:46.262Z,1007.82
2017-01-15T09:59:56.591Z,1007.86
2017-01-15T10:01:07.315Z,1007.84
2017-01-15T10:02:18.043Z,1007.86
2017-01-15T10:03:28.377Z,1007.88
2017-01-15T10:04:38.320Z,1007.85
2017-01-15T10:05:48.662Z,1007.87
2017-01-15T10:06:59.382Z,1007.86
2017-01-15T10:08:09.705Z,1007.89
2017-01-15T10:09:20.036Z,1007.85
2017-01-15T10:10:30.761Z,1007.89
2017-01-15T10:11:41.501Z,1007.89
2017-01-15T10:12:51.837Z,1007.87
2017-01-15T10:14:02.157Z,1007.88
2017-01-15T10:15:12.106Z,1007.9
2017-01-15T10:16:22.845Z,1007.92
2017-01-15T10:17:33.179Z,1007.95
2017-01-15T10:18:43.124Z,1007.96
2017-01-15T10:19:53.854Z,1007.96
2017-01-15T10:21:04.609Z,1007.99
2017-01-15T10:22:14.566Z,1008.04
2017-01-15T10:23:25.340Z,1008
2017-01-15T10:24:34.913Z,1008
2017-01-15T10:25:45.249Z,1007.99
2017-01-15T10:26:55.582Z,1008.04
2017-01-15T10:28:06.328Z,1008.03
2017-01-15T10:29:16.655Z,1007.98
2017-01-15T10:30:26.987Z,1008.01
2017-01-15T10:31:37.325Z,1008.04
2017-01-15T10:32:48.054Z,1008.12
2017-01-15T10:33:58.376Z,1008.09
2017-01-15T10:35:08.725Z,1008.12
2017-01-15T10:36:18.686Z,1008.14
2017-01-15T10:37:28.599Z,1008.15
2017-01-15T10:38:38.512Z,1008.12
2017-01-15T10:39:49.216Z,1008.11
2017-01-15T10:40:59.560Z,1008.15
2017-01-15T10:42:09.471Z,1008.14
2017-01-15T10:43:20.176Z,1008.17
2017-01-15T10:44:30.874Z,1008.15
2017-01-15T10:45:41.173Z,1008.17
2017-01-15T10:46:51.487Z,1008.11
2017-01-15T10:48:01.821Z,1008.12
2017-01-15T10:49:12.550Z,1008.17
2017-01-15T10:50:23.264Z,1008.14
2017-01-15T10:51:33.197Z,1008.18
2017-01-15T10:52:44.335Z,1008.18
2017-01-15T10:53:55.075Z,1008.19
2017-01-15T10:55:05.825Z,1008.17
2017-01-15T10:56:16.561Z,1008.19
2017-01-15T10:57:26.111Z,1008.23
2017-01-15T10:58:36.835Z,1008.22
2017-01-15T10:59:47.186Z,1008.22
2017-01-15T11:00:57.896Z,1008.28
2017-01-15T11:02:07.827Z,1008.27
2017-01-15T11:03:18.153Z,1008.29
2017-01-15T11:04:28.901Z,1008.27
2017-01-15T11:05:39.628Z,1008.28
2017-01-15T11:06:50.388Z,1008.3
2017-01-15T11:08:00.332Z,1008.34
2017-01-15T11:09:10.262Z,1008.34
2017-01-15T11:10:20.989Z,1008.32
2017-01-15T11:11:30.927Z,1008.35
2017-01-15T11:12:41.664Z,1008.33
2017-01-15T11:13:52.388Z,1008.33
2017-01-15T11:15:02.337Z,1008.37
2017-01-15T11:16:13.060Z,1008.42
2017-01-15T11:17:23.789Z,1008.37
2017-01-15T11:18:34.517Z,1008.4
2017-01-15T11:19:44.848Z,1008.36
2017-01-15T11:20:55.193Z,1008.36
2017-01-15T11:22:05.131Z,1008.31
2017-01-15T11:23:15.854Z,1008.35
2017-01-15T11:24:26.191Z,1008.43
2017-01-15T11:25:36.900Z,1008.4
2017-01-15T11:26:46.436Z,1008.41
2017-01-15T11:27:56.410Z,1008.43
2017-01-15T11:29:06.746Z,1008.44
2017-01-15T11:30:17.460Z,1008.46
2017-01-15T11:31:28.184Z,1008.46
2017-01-15T11:32:38.130Z,1008.43
2017-01-15T11:33:48.868Z,1008.49
2017-01-15T11:34:59.223Z,1008.49
2017-01-15T11:36:09.946Z,1008.49
2017-01-15T11:37:20.279Z,1008.53
2017-01-15T11:38:30.643Z,1008.51
2017-01-15T11:39:40.959Z,1008.52
2017-01-15T11:40:51.298Z,1008.53
2017-01-15T11:42:01.632Z,1008.53
2017-01-15T11:43:12.365Z,1008.58
2017-01-15T11:44:22.691Z,1008.54
2017-01-15T11:45:33.434Z,1008.58
2017-01-15T11:46:43.792Z,1008.6
2017-01-15T11:47:53.724Z,1008.63
2017-01-15T11:49:03.668Z,1008.66
2017-01-15T11:50:14.413Z,1008.6
2017-01-15T11:51:24.733Z,1008.66
2017-01-15T11:52:35.457Z,1008.68
2017-01-15T11:53:45.756Z,1008.66
2017-01-15T11:54:55.683Z,1008.7
2017-01-15T11:56:06.019Z,1008.68
2017-01-15T11:57:16.747Z,1008.67
2017-01-15T11:58:27.489Z,1008.66
2017-01-15T11:59:37.830Z,1008.68
2017-01-15T12:00:48.558Z,1008.67
2017-01-15T12:01:59.293Z,1008.72
2017-01-15T12:03:09.222Z,1008.68
2017-01-15T12:04:19.558Z,1008.75
2017-01-15T12:05:29.883Z,1008.78
2017-01-15T12:06:39.421Z,1008.74
2017-01-15T12:07:50.163Z,1008.71
2017-01-15T12:09:00.093Z,1008.77
2017-01-15T12:10:10.832Z,1008.72
2017-01-15T12:11:21.560Z,1008.77
2017-01-15T12:12:32.288Z,1008.81
2017-01-15T12:13:42.203Z,1008.78
2017-01-15T12:14:52.515Z,1008.82
2017-01-15T12:16:02.864Z,1008.84
2017-01-15T12:17:13.615Z,1008.84
2017-01-15T12:18:23.940Z,1008.8
2017-01-15T12:19:34.702Z,1008.78
2017-01-15T12:20:45.417Z,1008.83
2017-01-15T12:21:56.118Z,1008.83
2017-01-15T12:23:06.418Z,1008.86
2017-01-15T12:24:15.938Z,1008.85
2017-01-15T12:25:25.853Z,1008.85
2017-01-15T12:26:35.773Z,1008.85
2017-01-15T12:27:46.094Z,1008.93
2017-01-15T12:28:56.421Z,1008.9
2017-01-15T12:30:06.752Z,1008.92
2017-01-15T12:31:17.456Z,1008.9
2017-01-15T12:32:27.797Z,1008.91
2017-01-15T12:33:38.146Z,1008.92
2017-01-15T12:34:48.453Z,1008.97
2017-01-15T12:35:58.794Z,1009.01
2017-01-15T12:37:08.742Z,1008.99
2017-01-15T12:38:19.459Z,1009
2017-01-15T12:39:29.383Z,1009.02
2017-01-15T12:40:39.323Z,1009.04
2017-01-15T12:41:50.059Z,1009.05
2017-01-15T12:43:00.805Z,1009.07
2017-01-15T12:44:11.157Z,1009.12
2017-01-15T12:45:21.096Z,1009.11
2017-01-15T12:46:31.422Z,1009.1
2017-01-15T12:47:41.334Z,1009.09
2017-01-15T12:48:51.646Z,1009.13
2017-01-15T12:50:01.560Z,1009.13
2017-01-15T12:51:11.901Z,1009.16
2017-01-15T12:52:21.807Z,1009.2
2017-01-15T12:53:32.123Z,1009.18
2017-01-15T12:54:42.849Z,1009.24
2017-01-15T12:55:53.221Z,1009.19
2017-01-15T12:57:02.754Z,1009.23
2017-01-15T12:58:13.057Z,1009.19
2017-01-15T12:59:23.788Z,1009.27
2017-01-15T13:00:34.129Z,1009.28
2017-01-15T13:01:44.868Z,1009.3
2017-01-15T13:02:55.593Z,1009.32
2017-01-15T13:04:05.528Z,1009.33
2017-01-15T13:05:15.847Z,1009.38
2017-01-15T13:06:26.587Z,1009.38
2017-01-15T13:07:36.932Z,1009.44
2017-01-15T13:08:47.239Z,1009.43
2017-01-15T13:09:57.960Z,1009.48
2017-01-15T13:11:07.866Z,1009.52
2017-01-15T13:12:18.601Z,1009.48
2017-01-15T13:13:28.913Z,1009.55
2017-01-15T13:14:39.258Z,1009.55
2017-01-15T13:15:50.002Z,1009.57
2017-01-15T13:17:00.748Z,1009.56
2017-01-15T13:18:11.474Z,1009.59
2017-01-15T13:19:21.812Z,1009.64
2017-01-15T13:20:32.142Z,1009.61
2017-01-15T13:21:42.466Z,1009.64
2017-01-15T13:22:53.091Z,1009.65
2017-01-15T13:24:03.028Z,1009.68
2017-01-15T13:25:13.346Z,1009.68
2017-01-15T13:26:22.889Z,1009.69
2017-01-15T13:27:32.844Z,1009.75
2017-01-15T13:28:43.174Z,1009.76
2017-01-15T13:29:53.905Z,1009.74
2017-01-15T13:31:04.221Z,1009.76
2017-01-15T13:32:14.938Z,1009.8
2017-01-15T13:33:25.269Z,1009.78
2017-01-15T13:34:35.213Z,1009.81
2017-01-15T13:35:45.947Z,1009.87
2017-01-15T13:36:56.684Z,1009.85
2017-01-15T13:38:06.595Z,1009.92
2017-01-15T13:39:17.674Z,1009.87
2017-01-15T13:40:27.591Z,1009.9
2017-01-15T13:41:38.316Z,1009.94
2017-01-15T13:42:49.044Z,1009.94
2017-01-15T13:43:58.595Z,1010
2017-01-15T13:45:09.338Z,1010.01
2017-01-15T13:46:20.071Z,1010
2017-01-15T13:47:29.589Z,1010.02
2017-01-15T13:48:39.913Z,1010.02
2017-01-15T13:49:49.862Z,1010.03
2017-01-15T13:51:00.639Z,1010.06
2017-01-15T13:52:10.617Z,1010.05
2017-01-15T13:53:21.349Z,1010.09
2017-01-15T13:54:32.099Z,1010.06
2017-01-15T13:55:42.425Z,1010.09
2017-01-15T13:56:52.375Z,1010.12
2017-01-15T13:58:03.123Z,1010.11
2017-01-15T13:59:13.874Z,1010.16
2017-01-15T14:00:24.218Z,1010.15
2017-01-15T14:01:34.549Z,1010.17
2017-01-15T14:02:44.071Z,1010.19
2017-01-15T14:03:54.417Z,1010.2
2017-01-15T14:05:05.172Z,1010.17
2017-01-15T14:06:15.891Z,1010.19
2017-01-15T14:07:26.615Z,1010.22
2017-01-15T14:08:37.313Z,1010.2
2017-01-15T14:09:47.657Z,1010.21
2017-01-15T14:10:57.997Z,1010.23
2017-01-15T14:12:09.208Z,1010.29
2017-01-15T14:13:18.743Z,1010.25
2017-01-15T14:14:29.479Z,1010.27